sensor_id;sensor_type;location;lat;lon;timestamp;P1;durP1;ratioP1;P2;durP2;ratioP2
3052;SDS011;1536;51.098;6.414;2023-03-12T00:01:54;14.82;;;4.80;;
3052;SDS011;1536;51.098;6.414;2023-03-12T00:04:23;9.45;;;5.35;;
3052;SDS011;1536;51.098;6.414;2023-03-12T00:06:50;13.50;;;4.57;;
3052;SDS011;1536;51.098;6.414;2023-03-12T00:09:18;11.75;;;4.93;;
3052;SDS011;1536;51.098;6.414;2023-03-12T00:11:46;14.57;;;5.63;;
3052;SDS011;1536;51.098;6.414;2023-03-12T00:14:13;11.27;;;5.05;;
3052;SDS011;1536;51.098;6.414;2023-03-12T00:16:40;9.45;;;4.78;;
3052;SDS011;1536;51.098;6.414;2023-03-12T00:19:08;8.25;;;4.28;;
3052;SDS011;1536;51.098;6.414;2023-03-12T00:21:37;9.27;;;4.38;;
3052;SDS011;1536;51.098;6.414;2023-03-12T00:24:04;11.80;;;5.20;;
3052;SDS011;1536;51.098;6.414;2023-03-12T00:26:32;13.77;;;4.80;;
3052;SDS011;1536;51.098;6.414;2023-03-12T00:29:00;6.25;;;5.10;;
3052;SDS011;1536;51.098;6.414;2023-03-12T00:31:27;15.20;;;5.18;;
3052;SDS011;1536;51.098;6.414;2023-03-12T00:33:56;21.35;;;5.40;;
3052;SDS011;1536;51.098;6.414;2023-03-12T00:36:24;13.82;;;4.53;;
3052;SDS011;1536;51.098;6.414;2023-03-12T00:38:52;10.82;;;5.60;;
3052;SDS011;1536;51.098;6.414;2023-03-12T00:41:20;10.25;;;5.80;;
3052;SDS011;1536;51.098;6.414;2023-03-12T00:43:48;6.40;;;4.50;;
3052;SDS011;1536;51.098;6.414;2023-03-12T00:46:18;8.48;;;5.18;;
3052;SDS011;1536;51.098;6.414;2023-03-12T00:48:44;11.25;;;4.85;;
3052;SDS011;1536;51.098;6.414;2023-03-12T00:51:11;7.85;;;5.20;;
3052;SDS011;1536;51.098;6.414;2023-03-12T00:53:38;11.02;;;4.95;;
3052;SDS011;1536;51.098;6.414;2023-03-12T00:56:05;6.55;;;5.10;;
3052;SDS011;1536;51.098;6.414;2023-03-12T00:58:32;11.35;;;5.47;;
3052;SDS011;1536;51.098;6.414;2023-03-12T01:00:59;7.88;;;5.38;;
3052;SDS011;1536;51.098;6.414;2023-03-12T01:03:27;12.70;;;5.68;;
3052;SDS011;1536;51.098;6.414;2023-03-12T01:05:54;12.23;;;6.85;;
3052;SDS011;1536;51.098;6.414;2023-03-12T01:08:21;14.40;;;5.57;;
3052;SDS011;1536;51.098;6.414;2023-03-12T01:10:48;5.60;;;4.88;;
3052;SDS011;1536;51.098;6.414;2023-03-12T01:13:15;14.25;;;5.45;;
3052;SDS011;1536;51.098;6.414;2023-03-12T01:15:42;10.20;;;5.63;;
3052;SDS011;1536;51.098;6.414;2023-03-12T01:18:09;9.50;;;5.30;;
3052;SDS011;1536;51.098;6.414;2023-03-12T01:20:37;9.18;;;5.20;;
3052;SDS011;1536;51.098;6.414;2023-03-12T01:23:04;13.98;;;6.05;;
3052;SDS011;1536;51.098;6.414;2023-03-12T01:25:31;12.68;;;5.70;;
3052;SDS011;1536;51.098;6.414;2023-03-12T01:27:58;9.35;;;6.00;;
3052;SDS011;1536;51.098;6.414;2023-03-12T01:30:26;7.85;;;6.28;;
3052;SDS011;1536;51.098;6.414;2023-03-12T01:32:52;11.48;;;5.45;;
3052;SDS011;1536;51.098;6.414;2023-03-12T01:35:19;6.90;;;5.45;;
3052;SDS011;1536;51.098;6.414;2023-03-12T01:37:47;10.70;;;7.03;;
3052;SDS011;1536;51.098;6.414;2023-03-12T01:40:14;13.15;;;5.80;;
3052;SDS011;1536;51.098;6.414;2023-03-12T01:42:42;17.30;;;7.22;;
3052;SDS011;1536;51.098;6.414;2023-03-12T01:48:09;19.52;;;5.85;;
3052;SDS011;1536;51.098;6.414;2023-03-12T01:50:35;20.38;;;6.53;;
3052;SDS011;1536;51.098;6.414;2023-03-12T01:53:04;24.63;;;8.60;;
3052;SDS011;1536;51.098;6.414;2023-03-12T01:55:31;9.05;;;6.00;;
3052;SDS011;1536;51.098;6.414;2023-03-12T01:57:58;16.88;;;5.03;;
3052;SDS011;1536;51.098;6.414;2023-03-12T02:00:26;20.73;;;5.13;;
3052;SDS011;1536;51.098;6.414;2023-03-12T02:02:54;15.45;;;5.63;;
3052;SDS011;1536;51.098;6.414;2023-03-12T02:05:26;14.02;;;6.07;;
3052;SDS011;1536;51.098;6.414;2023-03-12T02:07:56;21.13;;;5.57;;
3052;SDS011;1536;51.098;6.414;2023-03-12T02:10:25;14.65;;;6.00;;
3052;SDS011;1536;51.098;6.414;2023-03-12T02:12:52;12.63;;;5.82;;
3052;SDS011;1536;51.098;6.414;2023-03-12T02:15:19;18.02;;;6.35;;
3052;SDS011;1536;51.098;6.414;2023-03-12T02:17:47;9.55;;;4.88;;
3052;SDS011;1536;51.098;6.414;2023-03-12T02:20:14;15.55;;;7.70;;
3052;SDS011;1536;51.098;6.414;2023-03-12T02:22:45;10.35;;;5.10;;
3052;SDS011;1536;51.098;6.414;2023-03-12T02:28:06;10.98;;;5.00;;
3052;SDS011;1536;51.098;6.414;2023-03-12T02:30:34;15.27;;;4.95;;
3052;SDS011;1536;51.098;6.414;2023-03-12T02:33:05;9.73;;;4.95;;
3052;SDS011;1536;51.098;6.414;2023-03-12T02:35:32;9.07;;;5.10;;
3052;SDS011;1536;51.098;6.414;2023-03-12T02:38:00;7.53;;;5.00;;
3052;SDS011;1536;51.098;6.414;2023-03-12T02:40:28;8.00;;;4.95;;
3052;SDS011;1536;51.098;6.414;2023-03-12T02:43:02;8.32;;;4.65;;
3052;SDS011;1536;51.098;6.414;2023-03-12T02:45:31;9.30;;;4.90;;
3052;SDS011;1536;51.098;6.414;2023-03-12T02:48:00;16.63;;;5.10;;
3052;SDS011;1536;51.098;6.414;2023-03-12T02:50:27;8.05;;;4.40;;
3052;SDS011;1536;51.098;6.414;2023-03-12T02:52:54;11.13;;;4.68;;
3052;SDS011;1536;51.098;6.414;2023-03-12T02:55:20;9.25;;;5.00;;
3052;SDS011;1536;51.098;6.414;2023-03-12T02:57:47;10.18;;;4.72;;
3052;SDS011;1536;51.098;6.414;2023-03-12T03:00:16;8.93;;;4.70;;
3052;SDS011;1536;51.098;6.414;2023-03-12T03:02:43;7.40;;;4.50;;
3052;SDS011;1536;51.098;6.414;2023-03-12T03:05:10;8.80;;;4.85;;
3052;SDS011;1536;51.098;6.414;2023-03-12T03:07:37;8.20;;;4.82;;
3052;SDS011;1536;51.098;6.414;2023-03-12T03:10:05;12.65;;;5.15;;
3052;SDS011;1536;51.098;6.414;2023-03-12T03:12:33;15.95;;;6.65;;
3052;SDS011;1536;51.098;6.414;2023-03-12T03:15:01;12.20;;;4.53;;
3052;SDS011;1536;51.098;6.414;2023-03-12T03:17:30;9.63;;;4.93;;
3052;SDS011;1536;51.098;6.414;2023-03-12T03:19:57;11.80;;;4.63;;
3052;SDS011;1536;51.098;6.414;2023-03-12T03:22:24;10.98;;;5.32;;
3052;SDS011;1536;51.098;6.414;2023-03-12T03:24:51;13.90;;;5.70;;
3052;SDS011;1536;51.098;6.414;2023-03-12T03:27:18;11.27;;;5.40;;
3052;SDS011;1536;51.098;6.414;2023-03-12T03:29:45;15.00;;;5.18;;
3052;SDS011;1536;51.098;6.414;2023-03-12T03:32:12;10.30;;;4.25;;
3052;SDS011;1536;51.098;6.414;2023-03-12T03:34:40;10.80;;;5.28;;
3052;SDS011;1536;51.098;6.414;2023-03-12T03:37:07;10.23;;;4.25;;
3052;SDS011;1536;51.098;6.414;2023-03-12T03:39:34;8.07;;;4.28;;
3052;SDS011;1536;51.098;6.414;2023-03-12T03:42:00;23.17;;;5.03;;
3052;SDS011;1536;51.098;6.414;2023-03-12T03:44:27;8.52;;;4.35;;
3052;SDS011;1536;51.098;6.414;2023-03-12T03:46:54;12.60;;;4.05;;
3052;SDS011;1536;51.098;6.414;2023-03-12T03:49:21;14.55;;;5.05;;
3052;SDS011;1536;51.098;6.414;2023-03-12T03:51:49;6.78;;;4.40;;
3052;SDS011;1536;51.098;6.414;2023-03-12T03:54:16;14.15;;;4.45;;
3052;SDS011;1536;51.098;6.414;2023-03-12T03:56:43;7.97;;;5.05;;
3052;SDS011;1536;51.098;6.414;2023-03-12T03:59:11;12.32;;;4.03;;
3052;SDS011;1536;51.098;6.414;2023-03-12T04:01:38;11.20;;;4.32;;
3052;SDS011;1536;51.098;6.414;2023-03-12T04:04:05;11.30;;;3.63;;
3052;SDS011;1536;51.098;6.414;2023-03-12T04:06:32;5.78;;;4.50;;
3052;SDS011;1536;51.098;6.414;2023-03-12T04:09:00;7.30;;;3.60;;
3052;SDS011;1536;51.098;6.414;2023-03-12T04:11:27;5.70;;;3.63;;
3052;SDS011;1536;51.098;6.414;2023-03-12T04:13:54;16.02;;;5.57;;
3052;SDS011;1536;51.098;6.414;2023-03-12T04:16:21;16.88;;;4.20;;
3052;SDS011;1536;51.098;6.414;2023-03-12T04:18:48;6.90;;;3.80;;
3052;SDS011;1536;51.098;6.414;2023-03-12T04:21:15;7.40;;;3.40;;
3052;SDS011;1536;51.098;6.414;2023-03-12T04:23:42;9.93;;;3.80;;
3052;SDS011;1536;51.098;6.414;2023-03-12T04:26:10;4.35;;;3.65;;
3052;SDS011;1536;51.098;6.414;2023-03-12T04:28:37;7.70;;;3.67;;
3052;SDS011;1536;51.098;6.414;2023-03-12T04:31:04;5.28;;;3.40;;
3052;SDS011;1536;51.098;6.414;2023-03-12T04:33:34;7.50;;;5.10;;
3052;SDS011;1536;51.098;6.414;2023-03-12T04:36:05;20.08;;;4.20;;
3052;SDS011;1536;51.098;6.414;2023-03-12T04:38:32;8.93;;;4.15;;
3052;SDS011;1536;51.098;6.414;2023-03-12T04:40:59;11.98;;;3.75;;
3052;SDS011;1536;51.098;6.414;2023-03-12T04:43:29;16.42;;;4.05;;
3052;SDS011;1536;51.098;6.414;2023-03-12T04:45:57;8.07;;;4.40;;
3052;SDS011;1536;51.098;6.414;2023-03-12T04:48:24;20.95;;;4.53;;
3052;SDS011;1536;51.098;6.414;2023-03-12T04:50:51;6.97;;;3.78;;
3052;SDS011;1536;51.098;6.414;2023-03-12T04:53:18;6.03;;;4.97;;
3052;SDS011;1536;51.098;6.414;2023-03-12T04:55:45;12.60;;;4.25;;
3052;SDS011;1536;51.098;6.414;2023-03-12T04:58:13;15.75;;;3.63;;
3052;SDS011;1536;51.098;6.414;2023-03-12T05:00:41;8.40;;;3.53;;
3052;SDS011;1536;51.098;6.414;2023-03-12T05:03:08;9.20;;;4.00;;
3052;SDS011;1536;51.098;6.414;2023-03-12T05:05:35;10.85;;;3.40;;
3052;SDS011;1536;51.098;6.414;2023-03-12T05:08:01;15.68;;;4.72;;
3052;SDS011;1536;51.098;6.414;2023-03-12T05:10:28;13.60;;;4.50;;
3052;SDS011;1536;51.098;6.414;2023-03-12T05:12:55;13.32;;;4.63;;
3052;SDS011;1536;51.098;6.414;2023-03-12T05:15:22;13.40;;;4.28;;
3052;SDS011;1536;51.098;6.414;2023-03-12T05:17:50;16.23;;;4.68;;
3052;SDS011;1536;51.098;6.414;2023-03-12T05:20:17;7.28;;;4.03;;
3052;SDS011;1536;51.098;6.414;2023-03-12T05:22:44;10.80;;;3.90;;
3052;SDS011;1536;51.098;6.414;2023-03-12T05:25:10;7.85;;;4.05;;
3052;SDS011;1536;51.098;6.414;2023-03-12T05:27:37;6.95;;;4.45;;
3052;SDS011;1536;51.098;6.414;2023-03-12T05:30:04;12.63;;;4.43;;
3052;SDS011;1536;51.098;6.414;2023-03-12T05:32:32;6.60;;;4.03;;
3052;SDS011;1536;51.098;6.414;2023-03-12T05:35:00;9.52;;;3.78;;
3052;SDS011;1536;51.098;6.414;2023-03-12T05:37:27;7.95;;;3.92;;
3052;SDS011;1536;51.098;6.414;2023-03-12T05:39:53;7.00;;;3.40;;
3052;SDS011;1536;51.098;6.414;2023-03-12T05:42:20;5.90;;;3.85;;
3052;SDS011;1536;51.098;6.414;2023-03-12T05:44:49;8.32;;;3.47;;
3052;SDS011;1536;51.098;6.414;2023-03-12T05:47:16;4.13;;;3.30;;
3052;SDS011;1536;51.098;6.414;2023-03-12T05:49:43;6.40;;;3.28;;
3052;SDS011;1536;51.098;6.414;2023-03-12T05:52:13;5.85;;;3.63;;
3052;SDS011;1536;51.098;6.414;2023-03-12T05:54:39;6.25;;;3.35;;
3052;SDS011;1536;51.098;6.414;2023-03-12T05:57:06;6.55;;;3.25;;
3052;SDS011;1536;51.098;6.414;2023-03-12T05:59:33;5.82;;;3.63;;
3052;SDS011;1536;51.098;6.414;2023-03-12T06:02:00;5.25;;;3.97;;
3052;SDS011;1536;51.098;6.414;2023-03-12T06:04:26;4.50;;;3.50;;
3052;SDS011;1536;51.098;6.414;2023-03-12T06:06:53;5.55;;;3.10;;
3052;SDS011;1536;51.098;6.414;2023-03-12T06:09:22;7.70;;;3.80;;
3052;SDS011;1536;51.098;6.414;2023-03-12T06:11:48;4.85;;;3.13;;
3052;SDS011;1536;51.098;6.414;2023-03-12T06:14:15;7.43;;;3.20;;
3052;SDS011;1536;51.098;6.414;2023-03-12T06:16:42;9.00;;;3.90;;
3052;SDS011;1536;51.098;6.414;2023-03-12T06:19:09;9.23;;;3.80;;
3052;SDS011;1536;51.098;6.414;2023-03-12T06:21:38;9.38;;;3.83;;
3052;SDS011;1536;51.098;6.414;2023-03-12T06:24:05;6.43;;;3.35;;
3052;SDS011;1536;51.098;6.414;2023-03-12T06:26:33;10.75;;;3.50;;
3052;SDS011;1536;51.098;6.414;2023-03-12T06:29:00;6.18;;;3.15;;
3052;SDS011;1536;51.098;6.414;2023-03-12T06:31:27;6.65;;;3.85;;
3052;SDS011;1536;51.098;6.414;2023-03-12T06:33:54;13.80;;;3.75;;
3052;SDS011;1536;51.098;6.414;2023-03-12T06:36:20;10.07;;;4.72;;
3052;SDS011;1536;51.098;6.414;2023-03-12T06:38:48;14.35;;;4.38;;
3052;SDS011;1536;51.098;6.414;2023-03-12T06:41:15;6.97;;;3.95;;
3052;SDS011;1536;51.098;6.414;2023-03-12T06:43:45;8.35;;;3.55;;
3052;SDS011;1536;51.098;6.414;2023-03-12T06:46:13;4.95;;;3.90;;
3052;SDS011;1536;51.098;6.414;2023-03-12T06:48:41;8.23;;;3.30;;
3052;SDS011;1536;51.098;6.414;2023-03-12T06:51:10;5.72;;;3.20;;
3052;SDS011;1536;51.098;6.414;2023-03-12T06:53:38;13.32;;;3.75;;
3052;SDS011;1536;51.098;6.414;2023-03-12T06:56:05;9.68;;;3.50;;
3052;SDS011;1536;51.098;6.414;2023-03-12T06:58:32;10.60;;;3.47;;
3052;SDS011;1536;51.098;6.414;2023-03-12T07:01:00;6.32;;;3.45;;
3052;SDS011;1536;51.098;6.414;2023-03-12T07:03:27;20.58;;;3.67;;
3052;SDS011;1536;51.098;6.414;2023-03-12T07:05:54;10.55;;;3.53;;
3052;SDS011;1536;51.098;6.414;2023-03-12T07:08:22;9.50;;;4.55;;
3052;SDS011;1536;51.098;6.414;2023-03-12T07:10:50;7.40;;;4.00;;
3052;SDS011;1536;51.098;6.414;2023-03-12T07:13:16;15.07;;;3.50;;
3052;SDS011;1536;51.098;6.414;2023-03-12T07:15:43;4.85;;;3.28;;
3052;SDS011;1536;51.098;6.414;2023-03-12T07:18:12;4.60;;;3.40;;
3052;SDS011;1536;51.098;6.414;2023-03-12T07:20:39;8.57;;;3.63;;
3052;SDS011;1536;51.098;6.414;2023-03-12T07:23:07;8.18;;;3.75;;
3052;SDS011;1536;51.098;6.414;2023-03-12T07:25:35;4.88;;;3.53;;
3052;SDS011;1536;51.098;6.414;2023-03-12T07:28:03;10.25;;;3.88;;
3052;SDS011;1536;51.098;6.414;2023-03-12T07:30:31;9.77;;;3.40;;
3052;SDS011;1536;51.098;6.414;2023-03-12T07:32:58;5.15;;;3.40;;
3052;SDS011;1536;51.098;6.414;2023-03-12T07:35:27;10.40;;;3.33;;
3052;SDS011;1536;51.098;6.414;2023-03-12T07:37:53;9.98;;;4.30;;
3052;SDS011;1536;51.098;6.414;2023-03-12T07:40:20;14.05;;;3.67;;
3052;SDS011;1536;51.098;6.414;2023-03-12T07:42:47;12.05;;;4.78;;
3052;SDS011;1536;51.098;6.414;2023-03-12T07:45:15;16.08;;;4.28;;
3052;SDS011;1536;51.098;6.414;2023-03-12T07:47:42;11.02;;;4.30;;
3052;SDS011;1536;51.098;6.414;2023-03-12T07:50:10;11.20;;;4.28;;
3052;SDS011;1536;51.098;6.414;2023-03-12T07:52:38;12.38;;;4.50;;
3052;SDS011;1536;51.098;6.414;2023-03-12T07:55:05;11.52;;;3.83;;
3052;SDS011;1536;51.098;6.414;2023-03-12T07:57:33;9.60;;;4.63;;
3052;SDS011;1536;51.098;6.414;2023-03-12T08:00:00;9.02;;;5.15;;
3052;SDS011;1536;51.098;6.414;2023-03-12T08:02:27;12.23;;;4.25;;
3052;SDS011;1536;51.098;6.414;2023-03-12T08:04:54;7.50;;;3.50;;
3052;SDS011;1536;51.098;6.414;2023-03-12T08:07:21;11.52;;;4.32;;
3052;SDS011;1536;51.098;6.414;2023-03-12T08:09:49;5.18;;;3.28;;
3052;SDS011;1536;51.098;6.414;2023-03-12T08:12:15;9.70;;;4.25;;
3052;SDS011;1536;51.098;6.414;2023-03-12T08:14:42;9.50;;;4.50;;
3052;SDS011;1536;51.098;6.414;2023-03-12T08:17:10;10.75;;;4.57;;
3052;SDS011;1536;51.098;6.414;2023-03-12T08:19:37;6.22;;;3.63;;
3052;SDS011;1536;51.098;6.414;2023-03-12T08:22:05;7.40;;;3.92;;
3052;SDS011;1536;51.098;6.414;2023-03-12T08:24:32;7.47;;;4.00;;
3052;SDS011;1536;51.098;6.414;2023-03-12T08:27:00;11.88;;;4.25;;
3052;SDS011;1536;51.098;6.414;2023-03-12T08:29:27;9.13;;;4.60;;
3052;SDS011;1536;51.098;6.414;2023-03-12T08:31:54;8.30;;;4.53;;
3052;SDS011;1536;51.098;6.414;2023-03-12T08:34:21;8.30;;;4.57;;
3052;SDS011;1536;51.098;6.414;2023-03-12T08:36:47;6.53;;;4.30;;
3052;SDS011;1536;51.098;6.414;2023-03-12T08:39:14;5.10;;;4.00;;
3052;SDS011;1536;51.098;6.414;2023-03-12T08:41:41;4.68;;;4.15;;
3052;SDS011;1536;51.098;6.414;2023-03-12T08:44:09;3.90;;;3.60;;
3052;SDS011;1536;51.098;6.414;2023-03-12T08:46:36;5.05;;;4.18;;
3052;SDS011;1536;51.098;6.414;2023-03-12T08:49:05;8.90;;;4.00;;
3052;SDS011;1536;51.098;6.414;2023-03-12T08:51:32;11.10;;;4.22;;
3052;SDS011;1536;51.098;6.414;2023-03-12T08:53:58;4.97;;;3.75;;
3052;SDS011;1536;51.098;6.414;2023-03-12T08:56:25;4.32;;;3.83;;
3052;SDS011;1536;51.098;6.414;2023-03-12T08:58:52;5.68;;;4.22;;
3052;SDS011;1536;51.098;6.414;2023-03-12T09:01:20;5.45;;;4.57;;
3052;SDS011;1536;51.098;6.414;2023-03-12T09:03:47;4.82;;;4.05;;
3052;SDS011;1536;51.098;6.414;2023-03-12T09:06:15;4.15;;;3.75;;
3052;SDS011;1536;51.098;6.414;2023-03-12T09:08:43;7.50;;;4.45;;
3052;SDS011;1536;51.098;6.414;2023-03-12T09:11:11;5.07;;;4.18;;
3052;SDS011;1536;51.098;6.414;2023-03-12T09:13:39;5.22;;;4.75;;
3052;SDS011;1536;51.098;6.414;2023-03-12T09:16:07;4.97;;;3.95;;
3052;SDS011;1536;51.098;6.414;2023-03-12T09:18:35;4.25;;;3.85;;
3052;SDS011;1536;51.098;6.414;2023-03-12T09:21:02;4.85;;;4.35;;
3052;SDS011;1536;51.098;6.414;2023-03-12T09:23:29;5.32;;;4.82;;
3052;SDS011;1536;51.098;6.414;2023-03-12T09:25:56;5.35;;;4.30;;
3052;SDS011;1536;51.098;6.414;2023-03-12T09:28:22;8.32;;;6.72;;
3052;SDS011;1536;51.098;6.414;2023-03-12T09:30:49;7.38;;;6.00;;
3052;SDS011;1536;51.098;6.414;2023-03-12T09:33:16;8.88;;;5.65;;
3052;SDS011;1536;51.098;6.414;2023-03-12T09:35:44;8.70;;;5.45;;
3052;SDS011;1536;51.098;6.414;2023-03-12T09:38:20;7.03;;;5.22;;
3052;SDS011;1536;51.098;6.414;2023-03-12T09:40:46;5.57;;;4.55;;
3052;SDS011;1536;51.098;6.414;2023-03-12T09:43:16;4.40;;;4.00;;
3052;SDS011;1536;51.098;6.414;2023-03-12T09:45:47;4.68;;;4.28;;
3052;SDS011;1536;51.098;6.414;2023-03-12T09:48:16;5.13;;;4.53;;
3052;SDS011;1536;51.098;6.414;2023-03-12T09:50:46;4.90;;;4.30;;
3052;SDS011;1536;51.098;6.414;2023-03-12T09:53:24;6.65;;;4.60;;
3052;SDS011;1536;51.098;6.414;2023-03-12T09:55:56;6.88;;;5.55;;
3052;SDS011;1536;51.098;6.414;2023-03-12T09:58:25;6.03;;;5.40;;
3052;SDS011;1536;51.098;6.414;2023-03-12T10:00:57;6.72;;;5.97;;
3052;SDS011;1536;51.098;6.414;2023-03-12T10:03:36;11.32;;;6.30;;
3052;SDS011;1536;51.098;6.414;2023-03-12T10:06:27;9.55;;;6.95;;
3052;SDS011;1536;51.098;6.414;2023-03-12T10:09:02;8.77;;;7.95;;
3052;SDS011;1536;51.098;6.414;2023-03-12T10:11:43;11.75;;;7.55;;
3052;SDS011;1536;51.098;6.414;2023-03-12T10:14:24;12.02;;;9.30;;
3052;SDS011;1536;51.098;6.414;2023-03-12T10:17:15;11.25;;;9.55;;
3052;SDS011;1536;51.098;6.414;2023-03-12T10:20:18;13.07;;;10.27;;
3052;SDS011;1536;51.098;6.414;2023-03-12T10:22:59;14.27;;;10.15;;
3052;SDS011;1536;51.098;6.414;2023-03-12T10:25:34;14.85;;;8.98;;
3052;SDS011;1536;51.098;6.414;2023-03-12T10:28:10;14.00;;;10.23;;
3052;SDS011;1536;51.098;6.414;2023-03-12T10:30:41;18.17;;;9.95;;
3052;SDS011;1536;51.098;6.414;2023-03-12T10:33:13;15.75;;;11.15;;
3052;SDS011;1536;51.098;6.414;2023-03-12T10:35:42;17.67;;;10.40;;
3052;SDS011;1536;51.098;6.414;2023-03-12T10:38:12;22.63;;;11.23;;
3052;SDS011;1536;51.098;6.414;2023-03-12T10:40:42;18.67;;;11.30;;
3052;SDS011;1536;51.098;6.414;2023-03-12T10:43:09;21.13;;;12.18;;
3052;SDS011;1536;51.098;6.414;2023-03-12T10:45:37;15.82;;;12.50;;
3052;SDS011;1536;51.098;6.414;2023-03-12T10:48:07;23.30;;;13.20;;
3052;SDS011;1536;51.098;6.414;2023-03-12T10:50:36;20.00;;;11.95;;
3052;SDS011;1536;51.098;6.414;2023-03-12T10:53:19;23.08;;;11.93;;
3052;SDS011;1536;51.098;6.414;2023-03-12T10:56:01;19.65;;;11.75;;
3052;SDS011;1536;51.098;6.414;2023-03-12T10:58:31;24.33;;;12.73;;
3052;SDS011;1536;51.098;6.414;2023-03-12T11:01:00;23.55;;;12.82;;
3052;SDS011;1536;51.098;6.414;2023-03-12T11:03:28;24.35;;;12.27;;
3052;SDS011;1536;51.098;6.414;2023-03-12T11:05:55;29.60;;;12.88;;
3052;SDS011;1536;51.098;6.414;2023-03-12T11:08:26;27.83;;;12.88;;
3052;SDS011;1536;51.098;6.414;2023-03-12T11:10:55;31.13;;;12.95;;
3052;SDS011;1536;51.098;6.414;2023-03-12T11:13:24;28.48;;;15.65;;
3052;SDS011;1536;51.098;6.414;2023-03-12T11:15:56;33.50;;;13.63;;
3052;SDS011;1536;51.098;6.414;2023-03-12T11:18:25;33.55;;;13.35;;
3052;SDS011;1536;51.098;6.414;2023-03-12T11:20:54;41.25;;;14.98;;
3052;SDS011;1536;51.098;6.414;2023-03-12T11:23:23;33.42;;;14.95;;
3052;SDS011;1536;51.098;6.414;2023-03-12T11:25:55;29.83;;;13.70;;
3052;SDS011;1536;51.098;6.414;2023-03-12T11:28:27;35.45;;;14.38;;
3052;SDS011;1536;51.098;6.414;2023-03-12T11:31:00;29.40;;;12.82;;
3052;SDS011;1536;51.098;6.414;2023-03-12T11:33:28;23.30;;;12.25;;
3052;SDS011;1536;51.098;6.414;2023-03-12T11:36:02;27.33;;;12.77;;
3052;SDS011;1536;51.098;6.414;2023-03-12T11:38:41;36.80;;;11.55;;
3052;SDS011;1536;51.098;6.414;2023-03-12T11:41:21;25.95;;;11.68;;
3052;SDS011;1536;51.098;6.414;2023-03-12T11:44:01;37.35;;;12.25;;
3052;SDS011;1536;51.098;6.414;2023-03-12T11:46:40;35.10;;;13.60;;
3052;SDS011;1536;51.098;6.414;2023-03-12T11:49:17;31.42;;;11.88;;
3052;SDS011;1536;51.098;6.414;2023-03-12T11:51:54;41.70;;;13.45;;
3052;SDS011;1536;51.098;6.414;2023-03-12T11:54:33;34.00;;;12.13;;
3052;SDS011;1536;51.098;6.414;2023-03-12T11:57:27;32.30;;;12.43;;
3052;SDS011;1536;51.098;6.414;2023-03-12T12:00:08;42.25;;;12.40;;
3052;SDS011;1536;51.098;6.414;2023-03-12T12:02:42;25.52;;;10.30;;
3052;SDS011;1536;51.098;6.414;2023-03-12T12:05:30;33.92;;;11.55;;
3052;SDS011;1536;51.098;6.414;2023-03-12T12:08:15;34.05;;;10.65;;
3052;SDS011;1536;51.098;6.414;2023-03-12T12:10:54;40.08;;;11.32;;
3052;SDS011;1536;51.098;6.414;2023-03-12T12:13:28;35.90;;;11.35;;
3052;SDS011;1536;51.098;6.414;2023-03-12T12:16:06;24.40;;;8.85;;
3052;SDS011;1536;51.098;6.414;2023-03-12T12:18:46;29.73;;;8.43;;
3052;SDS011;1536;51.098;6.414;2023-03-12T12:21:26;31.33;;;11.60;;
3052;SDS011;1536;51.098;6.414;2023-03-12T12:24:24;25.70;;;8.02;;
3052;SDS011;1536;51.098;6.414;2023-03-12T12:27:05;15.88;;;7.10;;
3052;SDS011;1536;51.098;6.414;2023-03-12T12:29:51;23.88;;;9.23;;
3052;SDS011;1536;51.098;6.414;2023-03-12T12:32:31;29.97;;;9.00;;
3052;SDS011;1536;51.098;6.414;2023-03-12T12:35:05;28.67;;;8.27;;
3052;SDS011;1536;51.098;6.414;2023-03-12T12:37:42;30.70;;;8.40;;
3052;SDS011;1536;51.098;6.414;2023-03-12T12:40:16;25.70;;;7.97;;
3052;SDS011;1536;51.098;6.414;2023-03-12T12:42:52;20.93;;;7.50;;
3052;SDS011;1536;51.098;6.414;2023-03-12T12:45:24;21.97;;;6.77;;
3052;SDS011;1536;51.098;6.414;2023-03-12T12:47:54;19.90;;;6.13;;
3052;SDS011;1536;51.098;6.414;2023-03-12T12:50:26;21.57;;;6.27;;
3052;SDS011;1536;51.098;6.414;2023-03-12T12:52:58;23.23;;;5.70;;
3052;SDS011;1536;51.098;6.414;2023-03-12T12:55:34;20.80;;;7.90;;
3052;SDS011;1536;51.098;6.414;2023-03-12T12:58:09;18.33;;;6.47;;
3052;SDS011;1536;51.098;6.414;2023-03-12T13:00:42;21.80;;;5.80;;
3052;SDS011;1536;51.098;6.414;2023-03-12T13:03:13;23.58;;;6.20;;
3052;SDS011;1536;51.098;6.414;2023-03-12T13:05:44;35.33;;;7.73;;
3052;SDS011;1536;51.098;6.414;2023-03-12T13:10:53;20.10;;;5.80;;
3052;SDS011;1536;51.098;6.414;2023-03-12T13:13:23;26.83;;;5.80;;
3052;SDS011;1536;51.098;6.414;2023-03-12T13:15:50;22.40;;;6.43;;
3052;SDS011;1536;51.098;6.414;2023-03-12T13:18:18;25.37;;;6.60;;
3052;SDS011;1536;51.098;6.414;2023-03-12T13:23:41;29.30;;;6.00;;
3052;SDS011;1536;51.098;6.414;2023-03-12T13:26:17;25.50;;;7.10;;
3052;SDS011;1536;51.098;6.414;2023-03-12T13:28:57;24.77;;;6.30;;
3052;SDS011;1536;51.098;6.414;2023-03-12T13:31:33;21.07;;;5.40;;
3052;SDS011;1536;51.098;6.414;2023-03-12T13:34:29;16.40;;;5.30;;
3052;SDS011;1536;51.098;6.414;2023-03-12T13:37:18;20.30;;;5.23;;
3052;SDS011;1536;51.098;6.414;2023-03-12T13:43:04;18.47;;;5.50;;
3052;SDS011;1536;51.098;6.414;2023-03-12T13:45:40;20.40;;;5.20;;
3052;SDS011;1536;51.098;6.414;2023-03-12T13:48:20;21.17;;;7.03;;
3052;SDS011;1536;51.098;6.414;2023-03-12T13:50:50;23.10;;;5.47;;
3052;SDS011;1536;51.098;6.414;2023-03-12T13:53:19;17.17;;;5.27;;
3052;SDS011;1536;51.098;6.414;2023-03-12T13:55:48;23.90;;;5.60;;
3052;SDS011;1536;51.098;6.414;2023-03-12T13:58:25;18.10;;;4.63;;
3052;SDS011;1536;51.098;6.414;2023-03-12T14:00:54;29.10;;;5.70;;
3052;SDS011;1536;51.098;6.414;2023-03-12T14:03:26;23.43;;;6.17;;
3052;SDS011;1536;51.098;6.414;2023-03-12T14:05:56;22.13;;;5.00;;
3052;SDS011;1536;51.098;6.414;2023-03-12T14:08:29;25.43;;;4.80;;
3052;SDS011;1536;51.098;6.414;2023-03-12T14:11:16;24.33;;;4.87;;
3052;SDS011;1536;51.098;6.414;2023-03-12T14:14:07;21.57;;;6.07;;
3052;SDS011;1536;51.098;6.414;2023-03-12T14:16:51;14.77;;;3.93;;
3052;SDS011;1536;51.098;6.414;2023-03-12T14:19:22;29.30;;;5.43;;
3052;SDS011;1536;51.098;6.414;2023-03-12T14:21:50;20.80;;;4.85;;
3052;SDS011;1536;51.098;6.414;2023-03-12T14:24:21;27.07;;;7.03;;
3052;SDS011;1536;51.098;6.414;2023-03-12T14:26:51;22.80;;;5.47;;
3052;SDS011;1536;51.098;6.414;2023-03-12T14:29:19;31.17;;;6.07;;
3052;SDS011;1536;51.098;6.414;2023-03-12T14:31:53;20.37;;;4.50;;
3052;SDS011;1536;51.098;6.414;2023-03-12T14:34:23;21.87;;;5.20;;
3052;SDS011;1536;51.098;6.414;2023-03-12T14:36:54;15.97;;;4.77;;
3052;SDS011;1536;51.098;6.414;2023-03-12T14:39:26;24.00;;;6.10;;
3052;SDS011;1536;51.098;6.414;2023-03-12T14:41:58;19.77;;;5.70;;
3052;SDS011;1536;51.098;6.414;2023-03-12T14:44:28;17.87;;;5.70;;
3052;SDS011;1536;51.098;6.414;2023-03-12T14:46:58;23.63;;;5.43;;
3052;SDS011;1536;51.098;6.414;2023-03-12T14:49:26;26.60;;;5.28;;
3052;SDS011;1536;51.098;6.414;2023-03-12T14:51:54;20.50;;;5.83;;
3052;SDS011;1536;51.098;6.414;2023-03-12T14:54:22;20.30;;;5.43;;
3052;SDS011;1536;51.098;6.414;2023-03-12T14:56:50;21.07;;;5.70;;
3052;SDS011;1536;51.098;6.414;2023-03-12T14:59:21;19.93;;;4.53;;
3052;SDS011;1536;51.098;6.414;2023-03-12T15:01:51;29.47;;;6.60;;
3052;SDS011;1536;51.098;6.414;2023-03-12T15:04:25;19.27;;;5.53;;
3052;SDS011;1536;51.098;6.414;2023-03-12T15:06:52;33.90;;;5.97;;
3052;SDS011;1536;51.098;6.414;2023-03-12T15:09:23;25.57;;;6.47;;
3052;SDS011;1536;51.098;6.414;2023-03-12T15:11:51;19.80;;;5.10;;
3052;SDS011;1536;51.098;6.414;2023-03-12T15:14:20;23.07;;;5.80;;
3052;SDS011;1536;51.098;6.414;2023-03-12T15:16:49;22.30;;;5.63;;
3052;SDS011;1536;51.098;6.414;2023-03-12T15:19:17;19.83;;;5.57;;
3052;SDS011;1536;51.098;6.414;2023-03-12T15:21:49;26.93;;;7.40;;
3052;SDS011;1536;51.098;6.414;2023-03-12T15:24:16;32.33;;;6.40;;
3052;SDS011;1536;51.098;6.414;2023-03-12T15:26:43;39.17;;;6.43;;
3052;SDS011;1536;51.098;6.414;2023-03-12T15:29:16;26.80;;;6.07;;
3052;SDS011;1536;51.098;6.414;2023-03-12T15:31:50;23.23;;;5.53;;
3052;SDS011;1536;51.098;6.414;2023-03-12T15:34:26;31.13;;;6.27;;
3052;SDS011;1536;51.098;6.414;2023-03-12T15:36:57;23.60;;;5.40;;